Terminal Aerodrome Forecast
Issued by NWS Louisville, KY

Home | Current Version | Previous Version | Text Only | Print | Product List | Glossary On
Versions: 1 2 3 4 5 6 7 8 9 10 11 12 13 14 15 16
000
FTUS43 KLMK 272154 AAB
TAFLEX
TAF AMD
KLEX 272154Z 2722/2818 VRB05KT P6SM FEW050 SCT250
      TEMPO 2722/2724 VRB15G25KT 3SM -TSRA BKN040CB
     FM280000 VRB03KT P6SM SCT250
     FM280800 VRB03KT 6SM BR FEW250
     FM281200 04004KT P6SM FEW040 SCT250=

USA.gov is the U.S. government's official web portal to all federal, state and local government web resources and services.